sensor_id;sensor_type;location;lat;lon;timestamp;P1;durP1;ratioP1;P2;durP2;ratioP2
44925;SDS011;30662;51.210;7.656;2022-08-21T00:01:30;8.73;;;3.75;;
44925;SDS011;30662;51.210;7.656;2022-08-21T00:04:03;10.57;;;3.95;;
44925;SDS011;30662;51.210;7.656;2022-08-21T00:06:32;9.10;;;4.22;;
44925;SDS011;30662;51.210;7.656;2022-08-21T00:08:59;13.63;;;4.32;;
44925;SDS011;30662;51.210;7.656;2022-08-21T00:11:32;10.48;;;4.55;;
44925;SDS011;30662;51.210;7.656;2022-08-21T00:14:00;10.70;;;5.07;;
44925;SDS011;30662;51.210;7.656;2022-08-21T00:16:26;14.90;;;4.68;;
44925;SDS011;30662;51.210;7.656;2022-08-21T00:18:52;13.18;;;4.55;;
44925;SDS011;30662;51.210;7.656;2022-08-21T00:21:18;10.95;;;4.28;;
44925;SDS011;30662;51.210;7.656;2022-08-21T00:23:44;9.38;;;4.20;;
44925;SDS011;30662;51.210;7.656;2022-08-21T00:26:10;10.65;;;4.60;;
44925;SDS011;30662;51.210;7.656;2022-08-21T00:28:36;10.55;;;4.47;;
44925;SDS011;30662;51.210;7.656;2022-08-21T00:31:02;9.02;;;4.30;;
44925;SDS011;30662;51.210;7.656;2022-08-21T00:33:29;10.13;;;4.80;;
44925;SDS011;30662;51.210;7.656;2022-08-21T00:35:56;8.18;;;4.60;;
44925;SDS011;30662;51.210;7.656;2022-08-21T00:38:23;11.13;;;5.18;;
44925;SDS011;30662;51.210;7.656;2022-08-21T00:40:57;11.43;;;5.00;;
44925;SDS011;30662;51.210;7.656;2022-08-21T00:46:11;11.18;;;5.30;;
44925;SDS011;30662;51.210;7.656;2022-08-21T00:48:36;15.35;;;5.65;;
44925;SDS011;30662;51.210;7.656;2022-08-21T00:51:05;12.32;;;3.97;;
44925;SDS011;30662;51.210;7.656;2022-08-21T00:53:37;11.02;;;5.05;;
44925;SDS011;30662;51.210;7.656;2022-08-21T00:56:07;11.52;;;5.18;;
44925;SDS011;30662;51.210;7.656;2022-08-21T00:58:37;9.13;;;4.93;;
44925;SDS011;30662;51.210;7.656;2022-08-21T01:01:09;13.25;;;4.60;;
44925;SDS011;30662;51.210;7.656;2022-08-21T01:03:35;10.45;;;4.43;;
44925;SDS011;30662;51.210;7.656;2022-08-21T01:06:02;12.07;;;4.60;;
44925;SDS011;30662;51.210;7.656;2022-08-21T01:08:29;8.65;;;4.40;;
44925;SDS011;30662;51.210;7.656;2022-08-21T01:10:56;11.27;;;4.90;;
44925;SDS011;30662;51.210;7.656;2022-08-21T01:13:22;9.85;;;4.70;;
44925;SDS011;30662;51.210;7.656;2022-08-21T01:15:50;10.88;;;5.25;;
44925;SDS011;30662;51.210;7.656;2022-08-21T01:18:18;10.27;;;5.18;;
44925;SDS011;30662;51.210;7.656;2022-08-21T01:20:59;12.05;;;4.75;;
44925;SDS011;30662;51.210;7.656;2022-08-21T01:23:25;18.15;;;5.43;;
44925;SDS011;30662;51.210;7.656;2022-08-21T01:25:51;14.90;;;5.00;;
44925;SDS011;30662;51.210;7.656;2022-08-21T01:28:17;17.75;;;5.72;;
44925;SDS011;30662;51.210;7.656;2022-08-21T01:30:46;14.32;;;5.43;;
44925;SDS011;30662;51.210;7.656;2022-08-21T01:33:14;14.30;;;5.25;;
44925;SDS011;30662;51.210;7.656;2022-08-21T01:35:39;13.65;;;5.30;;
44925;SDS011;30662;51.210;7.656;2022-08-21T01:38:05;14.70;;;5.50;;
44925;SDS011;30662;51.210;7.656;2022-08-21T01:40:31;15.10;;;4.80;;
44925;SDS011;30662;51.210;7.656;2022-08-21T01:42:57;9.70;;;4.72;;
44925;SDS011;30662;51.210;7.656;2022-08-21T01:45:24;11.40;;;5.03;;
44925;SDS011;30662;51.210;7.656;2022-08-21T01:47:49;20.13;;;5.90;;
44925;SDS011;30662;51.210;7.656;2022-08-21T01:50:16;12.13;;;4.72;;
44925;SDS011;30662;51.210;7.656;2022-08-21T01:52:44;8.60;;;4.22;;
44925;SDS011;30662;51.210;7.656;2022-08-21T01:55:10;13.68;;;4.88;;
44925;SDS011;30662;51.210;7.656;2022-08-21T01:57:38;11.43;;;4.50;;
44925;SDS011;30662;51.210;7.656;2022-08-21T02:00:05;10.95;;;4.65;;
44925;SDS011;30662;51.210;7.656;2022-08-21T02:02:34;13.15;;;4.85;;
44925;SDS011;30662;51.210;7.656;2022-08-21T02:05:00;13.00;;;5.57;;
44925;SDS011;30662;51.210;7.656;2022-08-21T02:07:25;11.20;;;4.80;;
44925;SDS011;30662;51.210;7.656;2022-08-21T02:09:51;10.85;;;4.55;;
44925;SDS011;30662;51.210;7.656;2022-08-21T02:12:18;13.23;;;4.35;;
44925;SDS011;30662;51.210;7.656;2022-08-21T02:14:44;12.20;;;4.20;;
44925;SDS011;30662;51.210;7.656;2022-08-21T02:17:10;9.30;;;4.32;;
44925;SDS011;30662;51.210;7.656;2022-08-21T02:19:36;12.85;;;4.63;;
44925;SDS011;30662;51.210;7.656;2022-08-21T02:22:06;10.40;;;4.00;;
44925;SDS011;30662;51.210;7.656;2022-08-21T02:24:36;9.57;;;4.32;;
44925;SDS011;30662;51.210;7.656;2022-08-21T02:27:20;12.63;;;4.73;;
44925;SDS011;30662;51.210;7.656;2022-08-21T02:29:51;11.27;;;5.20;;
44925;SDS011;30662;51.210;7.656;2022-08-21T02:32:17;11.85;;;4.13;;
44925;SDS011;30662;51.210;7.656;2022-08-21T02:34:43;10.13;;;5.07;;
44925;SDS011;30662;51.210;7.656;2022-08-21T02:37:09;13.80;;;5.03;;
44925;SDS011;30662;51.210;7.656;2022-08-21T02:39:34;15.00;;;4.85;;
44925;SDS011;30662;51.210;7.656;2022-08-21T02:42:00;9.88;;;4.78;;
44925;SDS011;30662;51.210;7.656;2022-08-21T02:44:26;15.25;;;5.20;;
44925;SDS011;30662;51.210;7.656;2022-08-21T02:46:59;11.60;;;4.80;;
44925;SDS011;30662;51.210;7.656;2022-08-21T02:49:25;11.70;;;4.93;;
44925;SDS011;30662;51.210;7.656;2022-08-21T02:51:51;15.20;;;5.90;;
44925;SDS011;30662;51.210;7.656;2022-08-21T02:54:17;9.75;;;5.05;;
44925;SDS011;30662;51.210;7.656;2022-08-21T02:56:43;11.10;;;5.20;;
44925;SDS011;30662;51.210;7.656;2022-08-21T02:59:09;9.50;;;4.95;;
44925;SDS011;30662;51.210;7.656;2022-08-21T03:01:34;11.85;;;5.20;;
44925;SDS011;30662;51.210;7.656;2022-08-21T03:04:01;11.88;;;4.82;;
44925;SDS011;30662;51.210;7.656;2022-08-21T03:06:27;13.73;;;5.28;;
44925;SDS011;30662;51.210;7.656;2022-08-21T03:08:54;10.70;;;4.97;;
44925;SDS011;30662;51.210;7.656;2022-08-21T03:11:20;16.02;;;5.18;;
44925;SDS011;30662;51.210;7.656;2022-08-21T03:13:46;12.57;;;5.55;;
44925;SDS011;30662;51.210;7.656;2022-08-21T03:16:12;9.82;;;4.22;;
44925;SDS011;30662;51.210;7.656;2022-08-21T03:18:38;11.90;;;5.43;;
44925;SDS011;30662;51.210;7.656;2022-08-21T03:21:05;12.00;;;5.25;;
44925;SDS011;30662;51.210;7.656;2022-08-21T03:23:32;14.57;;;5.82;;
44925;SDS011;30662;51.210;7.656;2022-08-21T03:25:58;8.82;;;4.43;;
44925;SDS011;30662;51.210;7.656;2022-08-21T03:28:24;12.75;;;4.95;;
44925;SDS011;30662;51.210;7.656;2022-08-21T03:30:51;9.15;;;4.45;;
44925;SDS011;30662;51.210;7.656;2022-08-21T03:33:17;18.25;;;4.32;;
44925;SDS011;30662;51.210;7.656;2022-08-21T03:35:50;9.38;;;4.97;;
44925;SDS011;30662;51.210;7.656;2022-08-21T03:38:27;12.90;;;4.85;;
44925;SDS011;30662;51.210;7.656;2022-08-21T03:40:54;11.88;;;4.82;;
44925;SDS011;30662;51.210;7.656;2022-08-21T03:43:20;15.07;;;5.03;;
44925;SDS011;30662;51.210;7.656;2022-08-21T03:45:46;14.20;;;4.35;;
44925;SDS011;30662;51.210;7.656;2022-08-21T03:48:12;9.60;;;3.95;;
44925;SDS011;30662;51.210;7.656;2022-08-21T03:50:40;13.07;;;4.07;;
44925;SDS011;30662;51.210;7.656;2022-08-21T03:53:09;13.98;;;4.78;;
44925;SDS011;30662;51.210;7.656;2022-08-21T03:55:42;16.70;;;4.65;;
44925;SDS011;30662;51.210;7.656;2022-08-21T03:58:08;11.55;;;4.13;;
44925;SDS011;30662;51.210;7.656;2022-08-21T04:00:43;8.80;;;4.32;;
44925;SDS011;30662;51.210;7.656;2022-08-21T04:03:10;7.47;;;4.03;;
44925;SDS011;30662;51.210;7.656;2022-08-21T04:05:36;9.13;;;4.15;;
44925;SDS011;30662;51.210;7.656;2022-08-21T04:08:03;14.25;;;4.65;;
44925;SDS011;30662;51.210;7.656;2022-08-21T04:10:31;11.75;;;3.85;;
44925;SDS011;30662;51.210;7.656;2022-08-21T04:13:00;11.95;;;4.13;;
44925;SDS011;30662;51.210;7.656;2022-08-21T04:15:26;10.93;;;4.32;;
44925;SDS011;30662;51.210;7.656;2022-08-21T04:17:52;8.88;;;4.10;;
44925;SDS011;30662;51.210;7.656;2022-08-21T04:20:19;11.75;;;5.65;;
44925;SDS011;30662;51.210;7.656;2022-08-21T04:22:47;12.77;;;4.75;;
44925;SDS011;30662;51.210;7.656;2022-08-21T04:25:14;10.23;;;4.47;;
44925;SDS011;30662;51.210;7.656;2022-08-21T04:27:41;12.15;;;5.13;;
44925;SDS011;30662;51.210;7.656;2022-08-21T04:30:07;12.15;;;4.82;;
44925;SDS011;30662;51.210;7.656;2022-08-21T04:32:35;10.65;;;4.70;;
44925;SDS011;30662;51.210;7.656;2022-08-21T04:35:05;9.30;;;4.72;;
44925;SDS011;30662;51.210;7.656;2022-08-21T04:37:33;13.15;;;4.72;;
44925;SDS011;30662;51.210;7.656;2022-08-21T04:40:07;13.45;;;5.03;;
44925;SDS011;30662;51.210;7.656;2022-08-21T04:42:39;12.23;;;4.30;;
44925;SDS011;30662;51.210;7.656;2022-08-21T04:45:18;8.90;;;4.05;;
44925;SDS011;30662;51.210;7.656;2022-08-21T04:47:48;9.32;;;5.05;;
44925;SDS011;30662;51.210;7.656;2022-08-21T04:50:19;11.60;;;4.32;;
44925;SDS011;30662;51.210;7.656;2022-08-21T04:52:47;13.38;;;5.35;;
44925;SDS011;30662;51.210;7.656;2022-08-21T04:55:14;10.25;;;5.03;;
44925;SDS011;30662;51.210;7.656;2022-08-21T04:57:41;13.93;;;5.10;;
44925;SDS011;30662;51.210;7.656;2022-08-21T05:00:15;12.85;;;5.25;;
44925;SDS011;30662;51.210;7.656;2022-08-21T05:02:43;14.32;;;5.25;;
44925;SDS011;30662;51.210;7.656;2022-08-21T05:05:11;13.77;;;5.88;;
44925;SDS011;30662;51.210;7.656;2022-08-21T05:07:37;10.02;;;4.80;;
44925;SDS011;30662;51.210;7.656;2022-08-21T05:10:09;11.73;;;4.07;;
44925;SDS011;30662;51.210;7.656;2022-08-21T05:12:37;10.48;;;4.28;;
44925;SDS011;30662;51.210;7.656;2022-08-21T05:15:04;8.98;;;4.00;;
44925;SDS011;30662;51.210;7.656;2022-08-21T05:17:31;11.88;;;3.95;;
44925;SDS011;30662;51.210;7.656;2022-08-21T05:19:57;11.05;;;4.50;;
44925;SDS011;30662;51.210;7.656;2022-08-21T05:22:23;13.80;;;4.38;;
44925;SDS011;30662;51.210;7.656;2022-08-21T05:24:50;7.72;;;3.80;;
44925;SDS011;30662;51.210;7.656;2022-08-21T05:27:16;11.65;;;4.15;;
44925;SDS011;30662;51.210;7.656;2022-08-21T05:29:43;11.23;;;3.63;;
44925;SDS011;30662;51.210;7.656;2022-08-21T05:32:10;9.00;;;4.40;;
44925;SDS011;30662;51.210;7.656;2022-08-21T05:34:37;29.15;;;21.63;;
44925;SDS011;30662;51.210;7.656;2022-08-21T05:37:03;13.15;;;5.47;;
44925;SDS011;30662;51.210;7.656;2022-08-21T05:39:33;12.75;;;4.95;;
44925;SDS011;30662;51.210;7.656;2022-08-21T05:42:18;11.15;;;4.10;;
44925;SDS011;30662;51.210;7.656;2022-08-21T05:44:44;11.55;;;3.97;;
44925;SDS011;30662;51.210;7.656;2022-08-21T05:47:10;10.88;;;3.97;;
44925;SDS011;30662;51.210;7.656;2022-08-21T05:49:37;10.23;;;4.45;;
44925;SDS011;30662;51.210;7.656;2022-08-21T05:52:03;10.30;;;4.00;;
44925;SDS011;30662;51.210;7.656;2022-08-21T05:54:30;20.00;;;3.97;;
44925;SDS011;30662;51.210;7.656;2022-08-21T05:56:56;6.22;;;3.83;;
44925;SDS011;30662;51.210;7.656;2022-08-21T05:59:22;11.15;;;4.07;;
44925;SDS011;30662;51.210;7.656;2022-08-21T06:01:49;11.05;;;3.90;;
44925;SDS011;30662;51.210;7.656;2022-08-21T06:04:17;12.68;;;3.80;;
44925;SDS011;30662;51.210;7.656;2022-08-21T06:06:43;12.95;;;4.50;;
44925;SDS011;30662;51.210;7.656;2022-08-21T06:09:09;11.05;;;3.88;;
44925;SDS011;30662;51.210;7.656;2022-08-21T06:11:35;7.22;;;3.53;;
44925;SDS011;30662;51.210;7.656;2022-08-21T06:14:01;10.07;;;4.18;;
44925;SDS011;30662;51.210;7.656;2022-08-21T06:16:27;7.90;;;3.15;;
44925;SDS011;30662;51.210;7.656;2022-08-21T06:18:54;10.77;;;3.85;;
44925;SDS011;30662;51.210;7.656;2022-08-21T06:21:27;9.20;;;3.65;;
44925;SDS011;30662;51.210;7.656;2022-08-21T06:23:53;7.75;;;4.05;;
44925;SDS011;30662;51.210;7.656;2022-08-21T06:26:19;13.95;;;4.45;;
44925;SDS011;30662;51.210;7.656;2022-08-21T06:28:45;9.52;;;3.92;;
44925;SDS011;30662;51.210;7.656;2022-08-21T06:31:19;12.18;;;3.80;;
44925;SDS011;30662;51.210;7.656;2022-08-21T06:33:49;9.48;;;3.83;;
44925;SDS011;30662;51.210;7.656;2022-08-21T06:36:15;12.10;;;4.07;;
44925;SDS011;30662;51.210;7.656;2022-08-21T06:38:44;9.15;;;4.20;;
44925;SDS011;30662;51.210;7.656;2022-08-21T06:41:17;10.32;;;3.95;;
44925;SDS011;30662;51.210;7.656;2022-08-21T06:43:49;9.73;;;4.05;;
44925;SDS011;30662;51.210;7.656;2022-08-21T06:46:15;11.38;;;4.03;;
44925;SDS011;30662;51.210;7.656;2022-08-21T06:48:41;10.55;;;4.57;;
44925;SDS011;30662;51.210;7.656;2022-08-21T06:51:07;8.38;;;3.88;;
44925;SDS011;30662;51.210;7.656;2022-08-21T06:53:33;11.15;;;3.50;;
44925;SDS011;30662;51.210;7.656;2022-08-21T06:55:59;8.05;;;3.88;;
44925;SDS011;30662;51.210;7.656;2022-08-21T06:58:25;10.93;;;3.53;;
44925;SDS011;30662;51.210;7.656;2022-08-21T07:00:51;8.80;;;3.60;;
44925;SDS011;30662;51.210;7.656;2022-08-21T07:03:38;8.82;;;3.40;;
44925;SDS011;30662;51.210;7.656;2022-08-21T07:06:05;10.48;;;4.53;;
44925;SDS011;30662;51.210;7.656;2022-08-21T07:08:33;6.95;;;3.83;;
44925;SDS011;30662;51.210;7.656;2022-08-21T07:11:00;10.68;;;4.25;;
44925;SDS011;30662;51.210;7.656;2022-08-21T07:13:32;10.07;;;3.58;;
44925;SDS011;30662;51.210;7.656;2022-08-21T07:15:58;6.13;;;3.45;;
44925;SDS011;30662;51.210;7.656;2022-08-21T07:18:29;10.10;;;3.33;;
44925;SDS011;30662;51.210;7.656;2022-08-21T07:20:55;8.25;;;3.35;;
44925;SDS011;30662;51.210;7.656;2022-08-21T07:23:30;10.75;;;4.43;;
44925;SDS011;30662;51.210;7.656;2022-08-21T07:25:58;7.90;;;3.42;;
44925;SDS011;30662;51.210;7.656;2022-08-21T07:28:26;8.82;;;3.42;;
44925;SDS011;30662;51.210;7.656;2022-08-21T07:30:53;7.57;;;4.28;;
44925;SDS011;30662;51.210;7.656;2022-08-21T07:33:21;7.78;;;3.60;;
44925;SDS011;30662;51.210;7.656;2022-08-21T07:35:47;10.30;;;3.88;;
44925;SDS011;30662;51.210;7.656;2022-08-21T07:38:13;10.57;;;3.85;;
44925;SDS011;30662;51.210;7.656;2022-08-21T07:40:39;7.72;;;3.45;;
44925;SDS011;30662;51.210;7.656;2022-08-21T07:43:05;16.65;;;4.68;;
44925;SDS011;30662;51.210;7.656;2022-08-21T07:45:31;8.20;;;3.85;;
44925;SDS011;30662;51.210;7.656;2022-08-21T07:47:57;7.90;;;3.50;;
44925;SDS011;30662;51.210;7.656;2022-08-21T07:50:23;12.18;;;3.58;;
44925;SDS011;30662;51.210;7.656;2022-08-21T07:52:50;7.70;;;3.70;;
44925;SDS011;30662;51.210;7.656;2022-08-21T07:55:17;13.55;;;4.13;;
44925;SDS011;30662;51.210;7.656;2022-08-21T07:57:45;10.63;;;3.63;;
44925;SDS011;30662;51.210;7.656;2022-08-21T08:00:14;6.72;;;2.92;;
44925;SDS011;30662;51.210;7.656;2022-08-21T08:02:43;11.85;;;3.80;;
44925;SDS011;30662;51.210;7.656;2022-08-21T08:05:11;11.63;;;3.60;;
44925;SDS011;30662;51.210;7.656;2022-08-21T08:07:37;8.02;;;3.40;;
44925;SDS011;30662;51.210;7.656;2022-08-21T08:10:05;8.65;;;3.60;;
44925;SDS011;30662;51.210;7.656;2022-08-21T08:12:33;10.30;;;3.88;;
44925;SDS011;30662;51.210;7.656;2022-08-21T08:15:00;5.90;;;2.85;;
44925;SDS011;30662;51.210;7.656;2022-08-21T08:17:27;10.13;;;3.33;;
44925;SDS011;30662;51.210;7.656;2022-08-21T08:19:54;8.38;;;3.38;;
44925;SDS011;30662;51.210;7.656;2022-08-21T08:22:21;11.65;;;3.50;;
44925;SDS011;30662;51.210;7.656;2022-08-21T08:24:51;7.30;;;2.70;;
44925;SDS011;30662;51.210;7.656;2022-08-21T08:27:18;9.05;;;3.70;;
44925;SDS011;30662;51.210;7.656;2022-08-21T08:29:45;8.43;;;3.60;;
44925;SDS011;30662;51.210;7.656;2022-08-21T08:32:11;7.25;;;4.18;;
44925;SDS011;30662;51.210;7.656;2022-08-21T08:34:38;11.55;;;3.40;;
44925;SDS011;30662;51.210;7.656;2022-08-21T08:37:05;11.73;;;3.90;;
44925;SDS011;30662;51.210;7.656;2022-08-21T08:39:33;10.35;;;4.13;;
44925;SDS011;30662;51.210;7.656;2022-08-21T08:42:04;8.52;;;4.20;;
44925;SDS011;30662;51.210;7.656;2022-08-21T08:45:03;9.23;;;3.97;;
44925;SDS011;30662;51.210;7.656;2022-08-21T08:47:32;7.60;;;3.88;;
44925;SDS011;30662;51.210;7.656;2022-08-21T08:50:21;11.93;;;4.20;;
44925;SDS011;30662;51.210;7.656;2022-08-21T08:52:54;9.38;;;4.03;;
44925;SDS011;30662;51.210;7.656;2022-08-21T08:58:00;11.90;;;4.55;;
44925;SDS011;30662;51.210;7.656;2022-08-21T09:00:28;13.27;;;4.63;;
44925;SDS011;30662;51.210;7.656;2022-08-21T09:02:56;10.90;;;4.55;;
44925;SDS011;30662;51.210;7.656;2022-08-21T09:19:22;8.98;;;3.35;;
44925;SDS011;30662;51.210;7.656;2022-08-21T09:22:02;7.78;;;3.17;;
44925;SDS011;30662;51.210;7.656;2022-08-21T09:27:33;9.88;;;3.78;;
44925;SDS011;30662;51.210;7.656;2022-08-21T09:29:59;8.98;;;3.95;;
44925;SDS011;30662;51.210;7.656;2022-08-21T09:32:30;8.77;;;3.58;;
44925;SDS011;30662;51.210;7.656;2022-08-21T09:35:13;7.80;;;2.88;;
44925;SDS011;30662;51.210;7.656;2022-08-21T09:37:49;11.40;;;3.30;;
44925;SDS011;30662;51.210;7.656;2022-08-21T09:45:39;7.57;;;3.03;;
44925;SDS011;30662;51.210;7.656;2022-08-21T09:48:11;7.68;;;3.30;;
44925;SDS011;30662;51.210;7.656;2022-08-21T09:50:39;8.13;;;2.83;;
44925;SDS011;30662;51.210;7.656;2022-08-21T09:53:13;10.88;;;3.55;;
44925;SDS011;30662;51.210;7.656;2022-08-21T09:55:52;9.98;;;3.33;;
44925;SDS011;30662;51.210;7.656;2022-08-21T09:58:41;8.18;;;2.72;;
44925;SDS011;30662;51.210;7.656;2022-08-21T10:01:20;8.07;;;3.05;;
44925;SDS011;30662;51.210;7.656;2022-08-21T10:03:49;10.38;;;2.90;;
44925;SDS011;30662;51.210;7.656;2022-08-21T10:06:28;7.93;;;3.03;;
44925;SDS011;30662;51.210;7.656;2022-08-21T10:09:12;11.25;;;3.03;;
44925;SDS011;30662;51.210;7.656;2022-08-21T10:11:55;4.82;;;2.28;;
44925;SDS011;30662;51.210;7.656;2022-08-21T10:17:34;10.95;;;3.47;;
44925;SDS011;30662;51.210;7.656;2022-08-21T10:20:24;10.32;;;3.22;;
44925;SDS011;30662;51.210;7.656;2022-08-21T10:25:58;9.30;;;2.42;;
44925;SDS011;30662;51.210;7.656;2022-08-21T10:29:16;7.38;;;2.70;;
44925;SDS011;30662;51.210;7.656;2022-08-21T10:31:35;9.50;;;2.55;;
44925;SDS011;30662;51.210;7.656;2022-08-21T10:39:56;7.05;;;2.75;;
44925;SDS011;30662;51.210;7.656;2022-08-21T10:47:52;9.68;;;2.13;;
44925;SDS011;30662;51.210;7.656;2022-08-21T10:56:08;9.80;;;2.53;;
44925;SDS011;30662;51.210;7.656;2022-08-21T10:58:39;6.30;;;2.40;;
44925;SDS011;30662;51.210;7.656;2022-08-21T11:01:12;8.95;;;2.38;;
44925;SDS011;30662;51.210;7.656;2022-08-21T11:04:22;8.60;;;2.50;;
44925;SDS011;30662;51.210;7.656;2022-08-21T11:07:19;6.30;;;2.15;;
44925;SDS011;30662;51.210;7.656;2022-08-21T11:09:57;8.48;;;2.15;;
44925;SDS011;30662;51.210;7.656;2022-08-21T11:12:34;12.75;;;3.10;;
44925;SDS011;30662;51.210;7.656;2022-08-21T11:15:21;6.72;;;2.72;;
44925;SDS011;30662;51.210;7.656;2022-08-21T11:18:10;5.00;;;1.88;;
44925;SDS011;30662;51.210;7.656;2022-08-21T11:23:37;6.53;;;2.17;;
44925;SDS011;30662;51.210;7.656;2022-08-21T11:26:13;6.13;;;2.05;;
44925;SDS011;30662;51.210;7.656;2022-08-21T11:28:51;5.88;;;1.90;;
44925;SDS011;30662;51.210;7.656;2022-08-21T11:31:28;6.05;;;1.60;;
44925;SDS011;30662;51.210;7.656;2022-08-21T11:44:55;6.47;;;1.73;;
44925;SDS011;30662;51.210;7.656;2022-08-21T11:50:31;4.68;;;1.40;;
44925;SDS011;30662;51.210;7.656;2022-08-21T11:55:47;8.27;;;1.58;;
44925;SDS011;30662;51.210;7.656;2022-08-21T11:58:24;4.63;;;1.77;;
44925;SDS011;30662;51.210;7.656;2022-08-21T12:00:56;4.53;;;1.70;;
44925;SDS011;30662;51.210;7.656;2022-08-21T12:03:27;6.38;;;1.65;;
44925;SDS011;30662;51.210;7.656;2022-08-21T12:19:04;5.20;;;1.67;;
44925;SDS011;30662;51.210;7.656;2022-08-21T12:21:32;4.35;;;1.77;;
44925;SDS011;30662;51.210;7.656;2022-08-21T12:27:14;3.92;;;1.50;;
44925;SDS011;30662;51.210;7.656;2022-08-21T12:32:03;3.92;;;1.65;;
44925;SDS011;30662;51.210;7.656;2022-08-21T12:34:51;3.70;;;1.55;;
44925;SDS011;30662;51.210;7.656;2022-08-21T12:37:44;3.47;;;1.50;;
44925;SDS011;30662;51.210;7.656;2022-08-21T12:40:22;6.13;;;1.77;;
44925;SDS011;30662;51.210;7.656;2022-08-21T12:42:56;5.78;;;1.55;;
44925;SDS011;30662;51.210;7.656;2022-08-21T12:48:09;5.55;;;1.63;;
44925;SDS011;30662;51.210;7.656;2022-08-21T12:50:53;5.18;;;2.13;;
44925;SDS011;30662;51.210;7.656;2022-08-21T12:56:14;5.88;;;1.30;;
44925;SDS011;30662;51.210;7.656;2022-08-21T12:58:50;5.63;;;1.40;;
44925;SDS011;30662;51.210;7.656;2022-08-21T13:04:11;4.80;;;1.30;;
44925;SDS011;30662;51.210;7.656;2022-08-21T13:06:45;4.63;;;1.45;;
44925;SDS011;30662;51.210;7.656;2022-08-21T13:09:16;4.25;;;1.10;;
44925;SDS011;30662;51.210;7.656;2022-08-21T13:11:46;3.83;;;1.10;;
44925;SDS011;30662;51.210;7.656;2022-08-21T13:14:24;5.53;;;1.20;;
44925;SDS011;30662;51.210;7.656;2022-08-21T13:16:56;8.75;;;1.55;;
44925;SDS011;30662;51.210;7.656;2022-08-21T13:19:24;3.38;;;1.30;;
44925;SDS011;30662;51.210;7.656;2022-08-21T13:21:51;4.28;;;1.25;;
44925;SDS011;30662;51.210;7.656;2022-08-21T13:30:06;4.80;;;1.70;;
44925;SDS011;30662;51.210;7.656;2022-08-21T13:32:45;2.22;;;0.88;;
44925;SDS011;30662;51.210;7.656;2022-08-21T13:37:42;4.22;;;1.20;;
44925;SDS011;30662;51.210;7.656;2022-08-21T13:40:11;2.90;;;0.90;;
44925;SDS011;30662;51.210;7.656;2022-08-21T13:42:41;5.07;;;1.55;;
44925;SDS011;30662;51.210;7.656;2022-08-21T13:45:14;2.85;;;1.08;;
44925;SDS011;30662;51.210;7.656;2022-08-21T13:47:48;2.42;;;0.80;;
44925;SDS011;30662;51.210;7.656;2022-08-21T13:50:15;4.45;;;1.17;;
44925;SDS011;30662;51.210;7.656;2022-08-21T13:52:48;3.10;;;1.17;;
44925;SDS011;30662;51.210;7.656;2022-08-21T13:55:22;6.30;;;1.30;;
44925;SDS011;30662;51.210;7.656;2022-08-21T13:58:00;5.03;;;0.90;;
44925;SDS011;30662;51.210;7.656;2022-08-21T14:00:28;4.43;;;0.90;;
44925;SDS011;30662;51.210;7.656;2022-08-21T14:03:00;4.63;;;1.20;;
44925;SDS011;30662;51.210;7.656;2022-08-21T14:05:32;5.72;;;1.35;;
44925;SDS011;30662;51.210;7.656;2022-08-21T14:08:14;2.50;;;0.90;;
44925;SDS011;30662;51.210;7.656;2022-08-21T14:10:55;3.92;;;0.82;;
44925;SDS011;30662;51.210;7.656;2022-08-21T14:15:57;5.53;;;1.50;;
44925;SDS011;30662;51.210;7.656;2022-08-21T14:18:24;2.40;;;1.00;;
44925;SDS011;30662;51.210;7.656;2022-08-21T14:20:51;1.88;;;0.95;;
44925;SDS011;30662;51.210;7.656;2022-08-21T14:23:28;3.03;;;1.38;;
44925;SDS011;30662;51.210;7.656;2022-08-21T14:25:54;3.65;;;0.93;;
44925;SDS011;30662;51.210;7.656;2022-08-21T14:28:30;4.78;;;1.40;;
44925;SDS011;30662;51.210;7.656;2022-08-21T14:31:10;3.10;;;1.10;;
44925;SDS011;30662;51.210;7.656;2022-08-21T14:33:38;2.80;;;1.08;;
44925;SDS011;30662;51.210;7.656;2022-08-21T14:36:04;4.57;;;1.40;;
44925;SDS011;30662;51.210;7.656;2022-08-21T14:38:30;2.92;;;1.00;;
44925;SDS011;30662;51.210;7.656;2022-08-21T14:41:03;3.05;;;1.20;;
44925;SDS011;30662;51.210;7.656;2022-08-21T14:43:33;4.63;;;1.38;;
44925;SDS011;30662;51.210;7.656;2022-08-21T14:45:59;3.40;;;1.10;;
44925;SDS011;30662;51.210;7.656;2022-08-21T14:48:26;3.05;;;1.08;;
44925;SDS011;30662;51.210;7.656;2022-08-21T14:50:52;2.75;;;1.02;;
44925;SDS011;30662;51.210;7.656;2022-08-21T14:53:23;3.72;;;0.90;;
44925;SDS011;30662;51.210;7.656;2022-08-21T14:55:49;6.47;;;1.85;;
44925;SDS011;30662;51.210;7.656;2022-08-21T14:58:31;2.28;;;0.88;;
44925;SDS011;30662;51.210;7.656;2022-08-21T15:01:01;2.47;;;1.10;;
44925;SDS011;30662;51.210;7.656;2022-08-21T15:03:30;4.45;;;1.00;;
44925;SDS011;30662;51.210;7.656;2022-08-21T15:05:56;3.42;;;1.23;;
44925;SDS011;30662;51.210;7.656;2022-08-21T15:08:22;4.43;;;1.13;;
44925;SDS011;30662;51.210;7.656;2022-08-21T15:10:48;4.43;;;1.10;;
44925;SDS011;30662;51.210;7.656;2022-08-21T15:13:34;4.45;;;1.17;;
44925;SDS011;30662;51.210;7.656;2022-08-21T15:16:01;3.25;;;1.02;;
44925;SDS011;30662;51.210;7.656;2022-08-21T15:18:28;4.35;;;1.33;;
44925;SDS011;30662;51.210;7.656;2022-08-21T15:20:55;4.55;;;1.50;;
44925;SDS011;30662;51.210;7.656;2022-08-21T15:23:21;2.80;;;0.90;;
44925;SDS011;30662;51.210;7.656;2022-08-21T15:25:48;4.05;;;1.08;;
44925;SDS011;30662;51.210;7.656;2022-08-21T15:28:15;2.85;;;1.00;;
44925;SDS011;30662;51.210;7.656;2022-08-21T15:30:42;2.92;;;1.00;;
44925;SDS011;30662;51.210;7.656;2022-08-21T15:33:09;2.97;;;0.90;;
44925;SDS011;30662;51.210;7.656;2022-08-21T15:35:37;3.53;;;1.13;;
44925;SDS011;30662;51.210;7.656;2022-08-21T15:38:06;5.38;;;1.20;;
44925;SDS011;30662;51.210;7.656;2022-08-21T15:40:36;2.83;;;1.13;;
44925;SDS011;30662;51.210;7.656;2022-08-21T15:43:03;5.07;;;1.38;;
44925;SDS011;30662;51.210;7.656;2022-08-21T15:45:30;5.15;;;1.10;;
44925;SDS011;30662;51.210;7.656;2022-08-21T15:47:58;1.77;;;0.60;;
44925;SDS011;30662;51.210;7.656;2022-08-21T15:50:24;2.72;;;0.80;;
44925;SDS011;30662;51.210;7.656;2022-08-21T15:52:52;3.05;;;1.20;;
44925;SDS011;30662;51.210;7.656;2022-08-21T15:55:20;4.30;;;0.85;;
44925;SDS011;30662;51.210;7.656;2022-08-21T15:57:47;3.50;;;1.00;;
44925;SDS011;30662;51.210;7.656;2022-08-21T16:00:24;5.80;;;1.17;;
44925;SDS011;30662;51.210;7.656;2022-08-21T16:02:51;2.65;;;0.85;;
44925;SDS011;30662;51.210;7.656;2022-08-21T16:05:19;2.83;;;0.90;;
44925;SDS011;30662;51.210;7.656;2022-08-21T16:07:46;2.45;;;1.20;;
44925;SDS011;30662;51.210;7.656;2022-08-21T16:10:14;2.25;;;0.80;;
44925;SDS011;30662;51.210;7.656;2022-08-21T16:12:43;2.50;;;1.10;;
44925;SDS011;30662;51.210;7.656;2022-08-21T16:15:15;3.10;;;0.98;;
44925;SDS011;30662;51.210;7.656;2022-08-21T16:17:46;3.53;;;0.98;;
44925;SDS011;30662;51.210;7.656;2022-08-21T16:20:22;3.42;;;1.33;;
44925;SDS011;30662;51.210;7.656;2022-08-21T16:22:52;2.50;;;1.00;;
44925;SDS011;30662;51.210;7.656;2022-08-21T16:25:19;4.00;;;1.70;;
44925;SDS011;30662;51.210;7.656;2022-08-21T16:27:47;2.35;;;1.30;;
44925;SDS011;30662;51.210;7.656;2022-08-21T16:30:24;4.30;;;0.75;;
44925;SDS011;30662;51.210;7.656;2022-08-21T16:32:51;3.08;;;0.95;;
44925;SDS011;30662;51.210;7.656;2022-08-21T16:35:17;2.15;;;0.82;;
44925;SDS011;30662;51.210;7.656;2022-08-21T16:37:45;3.58;;;1.17;;
44925;SDS011;30662;51.210;7.656;2022-08-21T16:40:17;1.98;;;0.93;;
44925;SDS011;30662;51.210;7.656;2022-08-21T16:42:43;3.17;;;1.00;;
44925;SDS011;30662;51.210;7.656;2022-08-21T16:45:11;2.33;;;1.00;;